sensor_id;sensor_type;location;lat;lon;timestamp;temperature;humidity
7796;DHT22;3942;51.518;6.912;2023-07-30T00:06:52;18.50;61.50
7796;DHT22;3942;51.518;6.912;2023-07-30T01:12:30;18.00;99.90
7796;DHT22;3942;51.518;6.912;2023-07-30T01:27:41;17.70;99.90
7796;DHT22;3942;51.518;6.912;2023-07-30T06:05:12;16.80;99.80
7796;DHT22;3942;51.518;6.912;2023-07-30T06:15:18;16.70;99.90
7796;DHT22;3942;51.518;6.912;2023-07-30T06:20:19;16.50;99.90
7796;DHT22;3942;51.518;6.912;2023-07-30T07:05:43;16.80;99.90
7796;DHT22;3942;51.518;6.912;2023-07-30T07:10:46;16.90;99.90
7796;DHT22;3942;51.518;6.912;2023-07-30T07:15:48;17.00;99.90
7796;DHT22;3942;51.518;6.912;2023-07-30T08:11:26;17.70;1.00
7796;DHT22;3942;51.518;6.912;2023-07-30T09:01:54;18.20;99.90
7796;DHT22;3942;51.518;6.912;2023-07-30T09:07:00;18.90;47.60
7796;DHT22;3942;51.518;6.912;2023-07-30T09:12:04;19.00;23.50
7796;DHT22;3942;51.518;6.912;2023-07-30T09:17:06;19.10;99.90
7796;DHT22;3942;51.518;6.912;2023-07-30T09:22:08;19.10;99.90
7796;DHT22;3942;51.518;6.912;2023-07-30T09:27:11;19.50;99.90
7796;DHT22;3942;51.518;6.912;2023-07-30T09:32:14;19.70;99.90
7796;DHT22;3942;51.518;6.912;2023-07-30T09:42:26;20.30;99.90
7796;DHT22;3942;51.518;6.912;2023-07-30T09:47:28;20.30;99.90
7796;DHT22;3942;51.518;6.912;2023-07-30T09:57:35;20.40;1.00
7796;DHT22;3942;51.518;6.912;2023-07-30T10:02:38;20.30;1.00
7796;DHT22;3942;51.518;6.912;2023-07-30T10:07:44;20.60;99.90
7796;DHT22;3942;51.518;6.912;2023-07-30T10:12:51;20.60;99.90
7796;DHT22;3942;51.518;6.912;2023-07-30T10:17:56;20.90;99.90
7796;DHT22;3942;51.518;6.912;2023-07-30T10:23:00;20.80;99.90
7796;DHT22;3942;51.518;6.912;2023-07-30T10:28:04;20.40;1.00
7796;DHT22;3942;51.518;6.912;2023-07-30T10:33:09;20.40;1.00
7796;DHT22;3942;51.518;6.912;2023-07-30T10:38:16;20.40;99.90
7796;DHT22;3942;51.518;6.912;2023-07-30T10:43:19;20.40;99.90
7796;DHT22;3942;51.518;6.912;2023-07-30T10:48:29;20.70;99.90
7796;DHT22;3942;51.518;6.912;2023-07-30T10:53:32;20.70;99.90
7796;DHT22;3942;51.518;6.912;2023-07-30T10:58:37;20.80;55.40
7796;DHT22;3942;51.518;6.912;2023-07-30T11:03:39;21.00;1.00
7796;DHT22;3942;51.518;6.912;2023-07-30T11:08:42;21.10;1.00
7796;DHT22;3942;51.518;6.912;2023-07-30T11:38:59;21.10;99.90
7796;DHT22;3942;51.518;6.912;2023-07-30T11:44:04;21.00;99.90
7796;DHT22;3942;51.518;6.912;2023-07-30T11:49:13;21.00;99.90
7796;DHT22;3942;51.518;6.912;2023-07-30T11:54:21;21.20;99.90
7796;DHT22;3942;51.518;6.912;2023-07-30T12:09:35;21.70;99.90
7796;DHT22;3942;51.518;6.912;2023-07-30T12:25:07;22.00;99.90
7796;DHT22;3942;51.518;6.912;2023-07-30T12:55:24;21.60;1.00
7796;DHT22;3942;51.518;6.912;2023-07-30T13:15:34;21.60;1.00
7796;DHT22;3942;51.518;6.912;2023-07-30T13:20:37;21.40;1.00
7796;DHT22;3942;51.518;6.912;2023-07-30T13:35:45;21.60;99.90
7796;DHT22;3942;51.518;6.912;2023-07-30T13:40:46;21.70;99.90
7796;DHT22;3942;51.518;6.912;2023-07-30T13:45:48;21.50;99.90
7796;DHT22;3942;51.518;6.912;2023-07-30T13:50:52;21.70;99.90
7796;DHT22;3942;51.518;6.912;2023-07-30T13:55:54;21.70;99.90
7796;DHT22;3942;51.518;6.912;2023-07-30T14:05:59;21.60;99.90
7796;DHT22;3942;51.518;6.912;2023-07-30T14:11:01;21.30;93.10
7796;DHT22;3942;51.518;6.912;2023-07-30T14:16:03;21.10;99.90
7796;DHT22;3942;51.518;6.912;2023-07-30T14:21:06;20.90;1.00
7796;DHT22;3942;51.518;6.912;2023-07-30T14:26:08;20.70;99.90
7796;DHT22;3942;51.518;6.912;2023-07-30T14:31:10;20.80;1.00
7796;DHT22;3942;51.518;6.912;2023-07-30T14:36:14;21.10;99.90
7796;DHT22;3942;51.518;6.912;2023-07-30T14:46:18;21.00;26.30
7796;DHT22;3942;51.518;6.912;2023-07-30T14:51:21;21.10;1.00
7796;DHT22;3942;51.518;6.912;2023-07-30T14:56:23;21.60;99.90
7796;DHT22;3942;51.518;6.912;2023-07-30T15:01:28;20.90;99.90
7796;DHT22;3942;51.518;6.912;2023-07-30T15:06:31;20.90;99.90
7796;DHT22;3942;51.518;6.912;2023-07-30T15:11:33;21.00;1.00
7796;DHT22;3942;51.518;6.912;2023-07-30T15:21:39;21.30;99.90
7796;DHT22;3942;51.518;6.912;2023-07-30T15:26:40;21.40;99.90
7796;DHT22;3942;51.518;6.912;2023-07-30T15:36:46;21.30;1.00
7796;DHT22;3942;51.518;6.912;2023-07-30T15:51:53;21.30;99.90
7796;DHT22;3942;51.518;6.912;2023-07-30T15:56:55;21.40;99.90
7796;DHT22;3942;51.518;6.912;2023-07-30T16:01:57;21.50;99.90
7796;DHT22;3942;51.518;6.912;2023-07-30T16:07:00;21.50;99.90
7796;DHT22;3942;51.518;6.912;2023-07-30T16:22:08;21.40;99.90
7796;DHT22;3942;51.518;6.912;2023-07-30T16:27:10;21.50;99.90
7796;DHT22;3942;51.518;6.912;2023-07-30T16:32:12;21.50;99.90
7796;DHT22;3942;51.518;6.912;2023-07-30T16:37:15;21.40;99.90
7796;DHT22;3942;51.518;6.912;2023-07-30T16:52:25;21.50;1.00
7796;DHT22;3942;51.518;6.912;2023-07-30T17:02:41;21.50;1.00
7796;DHT22;3942;51.518;6.912;2023-07-30T17:08:04;21.60;1.00
7796;DHT22;3942;51.518;6.912;2023-07-30T17:13:07;21.60;1.00
7796;DHT22;3942;51.518;6.912;2023-07-30T17:18:09;21.50;1.00
7796;DHT22;3942;51.518;6.912;2023-07-30T17:23:12;21.50;1.00
7796;DHT22;3942;51.518;6.912;2023-07-30T17:38:20;21.60;1.00
7796;DHT22;3942;51.518;6.912;2023-07-30T17:43:23;21.40;1.00
7796;DHT22;3942;51.518;6.912;2023-07-30T17:53:30;21.20;99.90
7796;DHT22;3942;51.518;6.912;2023-07-30T17:58:32;21.20;99.90
7796;DHT22;3942;51.518;6.912;2023-07-30T18:03:34;21.10;99.90
7796;DHT22;3942;51.518;6.912;2023-07-30T18:08:38;21.00;99.90
7796;DHT22;3942;51.518;6.912;2023-07-30T18:13:39;20.70;1.00
7796;DHT22;3942;51.518;6.912;2023-07-30T18:18:41;20.50;1.00
7796;DHT22;3942;51.518;6.912;2023-07-30T18:23:44;20.30;91.80
7796;DHT22;3942;51.518;6.912;2023-07-30T18:33:48;19.70;1.00
7796;DHT22;3942;51.518;6.912;2023-07-30T18:38:52;19.20;15.90
7796;DHT22;3942;51.518;6.912;2023-07-30T18:43:54;19.00;99.90
7796;DHT22;3942;51.518;6.912;2023-07-30T18:48:55;18.90;1.00
7796;DHT22;3942;51.518;6.912;2023-07-30T18:53:58;19.00;99.90
7796;DHT22;3942;51.518;6.912;2023-07-30T18:59:00;18.90;1.00
7796;DHT22;3942;51.518;6.912;2023-07-30T19:09:06;18.80;1.00
7796;DHT22;3942;51.518;6.912;2023-07-30T19:14:08;18.90;1.00
7796;DHT22;3942;51.518;6.912;2023-07-30T19:24:13;21.60;99.90
7796;DHT22;3942;51.518;6.912;2023-07-30T19:34:18;18.60;1.00
7796;DHT22;3942;51.518;6.912;2023-07-30T19:39:21;18.50;1.20
7796;DHT22;3942;51.518;6.912;2023-07-30T19:44:23;18.50;99.90
7796;DHT22;3942;51.518;6.912;2023-07-30T19:54:28;18.30;99.90
7796;DHT22;3942;51.518;6.912;2023-07-30T19:59:30;18.30;99.90
7796;DHT22;3942;51.518;6.912;2023-07-30T20:04:31;18.10;99.90
7796;DHT22;3942;51.518;6.912;2023-07-30T20:09:35;18.20;99.90
7796;DHT22;3942;51.518;6.912;2023-07-30T20:19:39;16.60;99.90
7796;DHT22;3942;51.518;6.912;2023-07-30T20:24:42;17.90;99.90
7796;DHT22;3942;51.518;6.912;2023-07-30T20:29:44;18.00;99.90
7796;DHT22;3942;51.518;6.912;2023-07-30T20:34:46;17.90;99.90
7796;DHT22;3942;51.518;6.912;2023-07-30T20:39:49;17.90;99.90
7796;DHT22;3942;51.518;6.912;2023-07-30T20:44:51;17.90;99.90
7796;DHT22;3942;51.518;6.912;2023-07-30T20:49:53;17.90;99.90
7796;DHT22;3942;51.518;6.912;2023-07-30T20:54:56;18.20;99.90
7796;DHT22;3942;51.518;6.912;2023-07-30T21:10:04;17.90;99.90
7796;DHT22;3942;51.518;6.912;2023-07-30T21:15:07;17.70;99.90
7796;DHT22;3942;51.518;6.912;2023-07-30T21:20:09;17.40;99.90
7796;DHT22;3942;51.518;6.912;2023-07-30T21:25:13;17.50;99.90
7796;DHT22;3942;51.518;6.912;2023-07-30T21:30:14;17.50;99.90
7796;DHT22;3942;51.518;6.912;2023-07-30T21:40:20;17.90;99.90
7796;DHT22;3942;51.518;6.912;2023-07-30T21:45:22;17.70;99.90
7796;DHT22;3942;51.518;6.912;2023-07-30T21:50:23;17.60;99.90
7796;DHT22;3942;51.518;6.912;2023-07-30T21:55:27;17.70;99.90
7796;DHT22;3942;51.518;6.912;2023-07-30T22:00:29;17.80;99.90
7796;DHT22;3942;51.518;6.912;2023-07-30T22:05:30;17.70;99.90
7796;DHT22;3942;51.518;6.912;2023-07-30T22:10:39;17.80;99.90
7796;DHT22;3942;51.518;6.912;2023-07-30T22:15:41;17.70;99.90
7796;DHT22;3942;51.518;6.912;2023-07-30T22:20:43;17.70;99.90
7796;DHT22;3942;51.518;6.912;2023-07-30T22:25:46;17.70;99.90
7796;DHT22;3942;51.518;6.912;2023-07-30T22:30:48;17.80;99.90
7796;DHT22;3942;51.518;6.912;2023-07-30T22:35:53;17.70;99.90
7796;DHT22;3942;51.518;6.912;2023-07-30T22:40:56;17.70;99.90
7796;DHT22;3942;51.518;6.912;2023-07-30T22:56:04;17.80;99.90
7796;DHT22;3942;51.518;6.912;2023-07-30T23:01:06;17.70;99.90
7796;DHT22;3942;51.518;6.912;2023-07-30T23:06:08;17.40;99.90
7796;DHT22;3942;51.518;6.912;2023-07-30T23:11:11;17.50;99.90
7796;DHT22;3942;51.518;6.912;2023-07-30T23:26:18;17.40;99.90
7796;DHT22;3942;51.518;6.912;2023-07-30T23:31:20;17.40;99.90
7796;DHT22;3942;51.518;6.912;2023-07-30T23:36:22;17.30;99.90
7796;DHT22;3942;51.518;6.912;2023-07-30T23:41:25;17.40;99.90
7796;DHT22;3942;51.518;6.912;2023-07-30T23:56:33;17.40;99.90
